sensor_id;sensor_type;location;lat;lon;timestamp;P1;durP1;ratioP1;P2;durP2;ratioP2
73959;SDS011;62316;48.920;2.342;2023-10-13T00:00:37;7.00;;;6.33;;
73959;SDS011;62316;48.920;2.342;2023-10-13T00:03:05;7.00;;;5.00;;
73959;SDS011;62316;48.920;2.342;2023-10-13T00:05:31;11.00;;;7.67;;
73959;SDS011;62316;48.920;2.342;2023-10-13T00:08:00;8.00;;;7.00;;
73959;SDS011;62316;48.920;2.342;2023-10-13T00:10:29;7.00;;;7.00;;
73959;SDS011;62316;48.920;2.342;2023-10-13T00:12:55;12.00;;;6.67;;
73959;SDS011;62316;48.920;2.342;2023-10-13T00:15:30;9.00;;;7.00;;
73959;SDS011;62316;48.920;2.342;2023-10-13T00:18:03;13.33;;;7.00;;
73959;SDS011;62316;48.920;2.342;2023-10-13T00:20:29;8.67;;;6.00;;
73959;SDS011;62316;48.920;2.342;2023-10-13T00:23:00;9.67;;;6.33;;
73959;SDS011;62316;48.920;2.342;2023-10-13T00:25:31;5.67;;;5.67;;
73959;SDS011;62316;48.920;2.342;2023-10-13T00:28:04;17.75;;;15.75;;
73959;SDS011;62316;48.920;2.342;2023-10-13T00:30:33;7.67;;;7.00;;
73959;SDS011;62316;48.920;2.342;2023-10-13T00:32:58;7.00;;;7.00;;
73959;SDS011;62316;48.920;2.342;2023-10-13T00:35:24;6.00;;;5.67;;
73959;SDS011;62316;48.920;2.342;2023-10-13T00:37:53;9.33;;;7.00;;
73959;SDS011;62316;48.920;2.342;2023-10-13T00:40:22;7.00;;;6.00;;
73959;SDS011;62316;48.920;2.342;2023-10-13T00:43:07;7.00;;;7.00;;
73959;SDS011;62316;48.920;2.342;2023-10-13T00:48:26;8.67;;;6.33;;
73959;SDS011;62316;48.920;2.342;2023-10-13T00:51:00;8.33;;;8.00;;
73959;SDS011;62316;48.920;2.342;2023-10-13T00:53:28;8.67;;;7.67;;
73959;SDS011;62316;48.920;2.342;2023-10-13T00:55:54;9.67;;;8.00;;
73959;SDS011;62316;48.920;2.342;2023-10-13T00:58:21;7.00;;;7.00;;
73959;SDS011;62316;48.920;2.342;2023-10-13T01:00:47;9.67;;;8.67;;
73959;SDS011;62316;48.920;2.342;2023-10-13T01:03:13;6.00;;;5.00;;
73959;SDS011;62316;48.920;2.342;2023-10-13T01:05:38;8.67;;;8.00;;
73959;SDS011;62316;48.920;2.342;2023-10-13T01:08:04;9.33;;;8.00;;
73959;SDS011;62316;48.920;2.342;2023-10-13T01:10:29;15.00;;;10.33;;
73959;SDS011;62316;48.920;2.342;2023-10-13T01:12:57;6.33;;;6.00;;
73959;SDS011;62316;48.920;2.342;2023-10-13T01:15:24;9.33;;;9.00;;
73959;SDS011;62316;48.920;2.342;2023-10-13T01:17:54;12.00;;;9.67;;
73959;SDS011;62316;48.920;2.342;2023-10-13T01:20:21;12.00;;;8.33;;
73959;SDS011;62316;48.920;2.342;2023-10-13T01:22:52;10.00;;;7.75;;
73959;SDS011;62316;48.920;2.342;2023-10-13T01:25:22;7.33;;;6.67;;
73959;SDS011;62316;48.920;2.342;2023-10-13T01:27:50;9.00;;;7.00;;
73959;SDS011;62316;48.920;2.342;2023-10-13T01:30:16;9.50;;;9.00;;
73959;SDS011;62316;48.920;2.342;2023-10-13T01:32:41;6.25;;;6.25;;
73959;SDS011;62316;48.920;2.342;2023-10-13T01:35:11;7.00;;;6.67;;
73959;SDS011;62316;48.920;2.342;2023-10-13T01:37:36;7.67;;;6.67;;
73959;SDS011;62316;48.920;2.342;2023-10-13T01:40:01;8.67;;;7.00;;
73959;SDS011;62316;48.920;2.342;2023-10-13T01:42:26;11.67;;;7.00;;
73959;SDS011;62316;48.920;2.342;2023-10-13T01:44:53;8.33;;;7.00;;
73959;SDS011;62316;48.920;2.342;2023-10-13T01:47:30;10.67;;;8.67;;
73959;SDS011;62316;48.920;2.342;2023-10-13T01:49:55;8.67;;;8.67;;
73959;SDS011;62316;48.920;2.342;2023-10-13T01:52:23;11.33;;;7.00;;
73959;SDS011;62316;48.920;2.342;2023-10-13T01:54:49;10.50;;;8.50;;
73959;SDS011;62316;48.920;2.342;2023-10-13T01:57:16;9.00;;;7.33;;
73959;SDS011;62316;48.920;2.342;2023-10-13T01:59:44;10.00;;;7.00;;
73959;SDS011;62316;48.920;2.342;2023-10-13T02:02:10;10.33;;;9.33;;
73959;SDS011;62316;48.920;2.342;2023-10-13T02:04:37;9.33;;;7.00;;
73959;SDS011;62316;48.920;2.342;2023-10-13T02:07:07;8.33;;;6.00;;
73959;SDS011;62316;48.920;2.342;2023-10-13T02:09:33;11.00;;;8.33;;
73959;SDS011;62316;48.920;2.342;2023-10-13T02:12:01;10.00;;;7.33;;
73959;SDS011;62316;48.920;2.342;2023-10-13T02:14:27;14.00;;;11.33;;
73959;SDS011;62316;48.920;2.342;2023-10-13T02:16:52;9.00;;;8.67;;
73959;SDS011;62316;48.920;2.342;2023-10-13T02:19:37;8.33;;;8.33;;
73959;SDS011;62316;48.920;2.342;2023-10-13T02:22:04;8.00;;;8.00;;
73959;SDS011;62316;48.920;2.342;2023-10-13T02:24:32;10.67;;;10.67;;
73959;SDS011;62316;48.920;2.342;2023-10-13T02:26:57;10.00;;;9.00;;
73959;SDS011;62316;48.920;2.342;2023-10-13T02:29:33;15.33;;;10.67;;
73959;SDS011;62316;48.920;2.342;2023-10-13T02:32:04;10.00;;;10.00;;
73959;SDS011;62316;48.920;2.342;2023-10-13T02:34:38;9.33;;;9.33;;
73959;SDS011;62316;48.920;2.342;2023-10-13T02:37:08;10.33;;;8.67;;
73959;SDS011;62316;48.920;2.342;2023-10-13T02:39:34;9.67;;;8.67;;
73959;SDS011;62316;48.920;2.342;2023-10-13T02:42:01;12.00;;;11.67;;
73959;SDS011;62316;48.920;2.342;2023-10-13T02:44:26;12.67;;;10.33;;
73959;SDS011;62316;48.920;2.342;2023-10-13T02:46:55;12.33;;;10.33;;
73959;SDS011;62316;48.920;2.342;2023-10-13T02:49:24;14.75;;;11.75;;
73959;SDS011;62316;48.920;2.342;2023-10-13T02:51:51;10.00;;;9.33;;
73959;SDS011;62316;48.920;2.342;2023-10-13T02:54:18;8.00;;;7.00;;
73959;SDS011;62316;48.920;2.342;2023-10-13T02:56:43;8.67;;;8.67;;
73959;SDS011;62316;48.920;2.342;2023-10-13T02:59:14;12.00;;;11.00;;
73959;SDS011;62316;48.920;2.342;2023-10-13T03:01:39;11.25;;;10.00;;
73959;SDS011;62316;48.920;2.342;2023-10-13T03:04:05;15.00;;;10.67;;
73959;SDS011;62316;48.920;2.342;2023-10-13T03:06:37;14.00;;;10.25;;
73959;SDS011;62316;48.920;2.342;2023-10-13T03:09:06;11.67;;;9.67;;
73959;SDS011;62316;48.920;2.342;2023-10-13T03:11:44;8.33;;;8.33;;
73959;SDS011;62316;48.920;2.342;2023-10-13T03:14:14;10.33;;;10.33;;
73959;SDS011;62316;48.920;2.342;2023-10-13T03:16:49;8.67;;;8.00;;
73959;SDS011;62316;48.920;2.342;2023-10-13T03:19:15;8.67;;;8.67;;
73959;SDS011;62316;48.920;2.342;2023-10-13T03:21:43;11.00;;;9.67;;
73959;SDS011;62316;48.920;2.342;2023-10-13T03:24:10;14.67;;;13.33;;
73959;SDS011;62316;48.920;2.342;2023-10-13T03:26:38;11.67;;;9.00;;
73959;SDS011;62316;48.920;2.342;2023-10-13T03:29:09;11.00;;;9.67;;
73959;SDS011;62316;48.920;2.342;2023-10-13T03:31:38;14.00;;;12.00;;
73959;SDS011;62316;48.920;2.342;2023-10-13T03:34:07;13.00;;;13.00;;
73959;SDS011;62316;48.920;2.342;2023-10-13T03:36:37;11.67;;;9.00;;
73959;SDS011;62316;48.920;2.342;2023-10-13T03:39:23;15.00;;;10.00;;
73959;SDS011;62316;48.920;2.342;2023-10-13T03:41:56;12.33;;;10.33;;
73959;SDS011;62316;48.920;2.342;2023-10-13T03:44:22;13.67;;;12.67;;
73959;SDS011;62316;48.920;2.342;2023-10-13T03:46:48;13.33;;;10.67;;
73959;SDS011;62316;48.920;2.342;2023-10-13T03:49:14;13.00;;;10.67;;
73959;SDS011;62316;48.920;2.342;2023-10-13T03:51:39;13.33;;;8.00;;
73959;SDS011;62316;48.920;2.342;2023-10-13T03:54:05;11.33;;;9.00;;
73959;SDS011;62316;48.920;2.342;2023-10-13T03:56:34;9.00;;;7.67;;
73959;SDS011;62316;48.920;2.342;2023-10-13T03:59:05;13.33;;;11.67;;
73959;SDS011;62316;48.920;2.342;2023-10-13T04:01:35;8.67;;;8.33;;
73959;SDS011;62316;48.920;2.342;2023-10-13T04:04:11;9.33;;;9.00;;
73959;SDS011;62316;48.920;2.342;2023-10-13T04:07:05;14.00;;;13.00;;
73959;SDS011;62316;48.920;2.342;2023-10-13T04:09:35;18.33;;;9.67;;
73959;SDS011;62316;48.920;2.342;2023-10-13T04:12:23;13.67;;;10.33;;
73959;SDS011;62316;48.920;2.342;2023-10-13T04:15:07;12.33;;;9.33;;
73959;SDS011;62316;48.920;2.342;2023-10-13T04:17:48;14.33;;;11.00;;
73959;SDS011;62316;48.920;2.342;2023-10-13T04:20:15;10.00;;;8.67;;
73959;SDS011;62316;48.920;2.342;2023-10-13T04:22:52;14.00;;;14.00;;
73959;SDS011;62316;48.920;2.342;2023-10-13T04:25:18;11.00;;;10.25;;
73959;SDS011;62316;48.920;2.342;2023-10-13T04:28:02;10.00;;;9.00;;
73959;SDS011;62316;48.920;2.342;2023-10-13T04:30:44;11.50;;;10.50;;
73959;SDS011;62316;48.920;2.342;2023-10-13T04:36:09;13.33;;;9.67;;
73959;SDS011;62316;48.920;2.342;2023-10-13T04:38:56;13.00;;;9.33;;
73959;SDS011;62316;48.920;2.342;2023-10-13T04:41:24;14.00;;;13.00;;
73959;SDS011;62316;48.920;2.342;2023-10-13T04:43:49;16.00;;;10.33;;
73959;SDS011;62316;48.920;2.342;2023-10-13T04:46:21;11.00;;;8.25;;
73959;SDS011;62316;48.920;2.342;2023-10-13T04:49:28;13.33;;;9.00;;
73959;SDS011;62316;48.920;2.342;2023-10-13T04:51:57;13.50;;;11.75;;
73959;SDS011;62316;48.920;2.342;2023-10-13T04:54:35;14.67;;;10.00;;
73959;SDS011;62316;48.920;2.342;2023-10-13T04:57:20;8.00;;;8.00;;
73959;SDS011;62316;48.920;2.342;2023-10-13T04:59:49;10.33;;;10.33;;
73959;SDS011;62316;48.920;2.342;2023-10-13T05:02:30;18.33;;;12.67;;
73959;SDS011;62316;48.920;2.342;2023-10-13T05:05:01;10.50;;;8.00;;
73959;SDS011;62316;48.920;2.342;2023-10-13T05:07:45;23.50;;;21.00;;
73959;SDS011;62316;48.920;2.342;2023-10-13T05:10:30;15.75;;;13.00;;
73959;SDS011;62316;48.920;2.342;2023-10-13T05:13:14;11.67;;;10.33;;
73959;SDS011;62316;48.920;2.342;2023-10-13T05:15:58;12.25;;;12.25;;
73959;SDS011;62316;48.920;2.342;2023-10-13T05:18:42;12.00;;;9.50;;
73959;SDS011;62316;48.920;2.342;2023-10-13T05:21:26;14.25;;;11.75;;
73959;SDS011;62316;48.920;2.342;2023-10-13T05:24:10;12.33;;;9.33;;
73959;SDS011;62316;48.920;2.342;2023-10-13T05:26:54;12.00;;;10.25;;
73959;SDS011;62316;48.920;2.342;2023-10-13T05:29:39;11.75;;;11.75;;
73959;SDS011;62316;48.920;2.342;2023-10-13T05:32:23;16.50;;;13.75;;
73959;SDS011;62316;48.920;2.342;2023-10-13T05:35:07;10.50;;;10.50;;
73959;SDS011;62316;48.920;2.342;2023-10-13T05:37:51;14.33;;;12.00;;
73959;SDS011;62316;48.920;2.342;2023-10-13T05:40:35;17.25;;;16.75;;
73959;SDS011;62316;48.920;2.342;2023-10-13T05:43:19;13.33;;;12.33;;
73959;SDS011;62316;48.920;2.342;2023-10-13T05:46:03;13.67;;;13.67;;
73959;SDS011;62316;48.920;2.342;2023-10-13T05:48:48;15.00;;;12.67;;
73959;SDS011;62316;48.920;2.342;2023-10-13T05:51:25;14.00;;;14.00;;
73959;SDS011;62316;48.920;2.342;2023-10-13T05:54:12;16.50;;;14.75;;
73959;SDS011;62316;48.920;2.342;2023-10-13T05:56:38;16.25;;;14.50;;
73959;SDS011;62316;48.920;2.342;2023-10-13T05:59:22;19.00;;;16.25;;
73959;SDS011;62316;48.920;2.342;2023-10-13T06:02:06;14.67;;;13.33;;
73959;SDS011;62316;48.920;2.342;2023-10-13T06:04:50;16.67;;;16.33;;
73959;SDS011;62316;48.920;2.342;2023-10-13T06:07:34;17.00;;;14.75;;
73959;SDS011;62316;48.920;2.342;2023-10-13T06:10:18;20.50;;;18.00;;
73959;SDS011;62316;48.920;2.342;2023-10-13T06:13:02;17.50;;;14.00;;
73959;SDS011;62316;48.920;2.342;2023-10-13T06:15:46;16.33;;;15.00;;
73959;SDS011;62316;48.920;2.342;2023-10-13T06:18:30;18.50;;;15.75;;
73959;SDS011;62316;48.920;2.342;2023-10-13T06:21:14;19.00;;;17.25;;
73959;SDS011;62316;48.920;2.342;2023-10-13T06:23:58;12.25;;;10.75;;
73959;SDS011;62316;48.920;2.342;2023-10-13T06:26:42;15.25;;;14.50;;
73959;SDS011;62316;48.920;2.342;2023-10-13T06:29:26;18.00;;;15.75;;
73959;SDS011;62316;48.920;2.342;2023-10-13T06:31:51;21.75;;;17.75;;
73959;SDS011;62316;48.920;2.342;2023-10-13T06:34:16;17.33;;;16.67;;
73959;SDS011;62316;48.920;2.342;2023-10-13T06:36:53;15.50;;;15.00;;
73959;SDS011;62316;48.920;2.342;2023-10-13T06:39:19;24.75;;;22.00;;
73959;SDS011;62316;48.920;2.342;2023-10-13T06:42:02;21.75;;;17.75;;
73959;SDS011;62316;48.920;2.342;2023-10-13T06:44:28;19.33;;;19.33;;
73959;SDS011;62316;48.920;2.342;2023-10-13T06:46:57;25.75;;;20.50;;
73959;SDS011;62316;48.920;2.342;2023-10-13T06:49:22;19.50;;;16.00;;
73959;SDS011;62316;48.920;2.342;2023-10-13T06:51:48;20.00;;;19.50;;
73959;SDS011;62316;48.920;2.342;2023-10-13T06:54:14;22.75;;;17.75;;
73959;SDS011;62316;48.920;2.342;2023-10-13T06:56:46;18.25;;;16.75;;
73959;SDS011;62316;48.920;2.342;2023-10-13T06:59:12;18.75;;;14.75;;
73959;SDS011;62316;48.920;2.342;2023-10-13T07:01:38;17.50;;;16.25;;
73959;SDS011;62316;48.920;2.342;2023-10-13T07:04:06;15.50;;;14.00;;
73959;SDS011;62316;48.920;2.342;2023-10-13T07:06:38;21.00;;;17.50;;
73959;SDS011;62316;48.920;2.342;2023-10-13T07:09:07;17.00;;;14.75;;
73959;SDS011;62316;48.920;2.342;2023-10-13T07:11:40;14.00;;;12.67;;
73959;SDS011;62316;48.920;2.342;2023-10-13T07:14:08;23.75;;;21.25;;
73959;SDS011;62316;48.920;2.342;2023-10-13T07:16:43;17.75;;;14.75;;
73959;SDS011;62316;48.920;2.342;2023-10-13T07:19:11;15.25;;;13.50;;
73959;SDS011;62316;48.920;2.342;2023-10-13T07:21:42;15.50;;;15.00;;
73959;SDS011;62316;48.920;2.342;2023-10-13T07:24:10;15.33;;;13.33;;
73959;SDS011;62316;48.920;2.342;2023-10-13T07:26:36;10.50;;;9.25;;
73959;SDS011;62316;48.920;2.342;2023-10-13T07:29:12;15.50;;;14.50;;
73959;SDS011;62316;48.920;2.342;2023-10-13T07:31:38;18.25;;;15.00;;
73959;SDS011;62316;48.920;2.342;2023-10-13T07:34:05;20.50;;;17.75;;
73959;SDS011;62316;48.920;2.342;2023-10-13T07:36:37;15.25;;;13.75;;
73959;SDS011;62316;48.920;2.342;2023-10-13T07:39:08;16.33;;;16.33;;
73959;SDS011;62316;48.920;2.342;2023-10-13T07:41:49;14.50;;;12.75;;
73959;SDS011;62316;48.920;2.342;2023-10-13T07:44:19;13.00;;;13.00;;
73959;SDS011;62316;48.920;2.342;2023-10-13T07:46:49;15.50;;;14.75;;
73959;SDS011;62316;48.920;2.342;2023-10-13T07:49:23;13.67;;;12.67;;
73959;SDS011;62316;48.920;2.342;2023-10-13T07:51:53;18.50;;;17.25;;
73959;SDS011;62316;48.920;2.342;2023-10-13T07:54:22;16.50;;;13.50;;
73959;SDS011;62316;48.920;2.342;2023-10-13T07:56:47;14.50;;;13.25;;
73959;SDS011;62316;48.920;2.342;2023-10-13T07:59:13;14.00;;;14.00;;
73959;SDS011;62316;48.920;2.342;2023-10-13T08:01:40;20.00;;;15.00;;
73959;SDS011;62316;48.920;2.342;2023-10-13T08:04:08;18.00;;;15.00;;
73959;SDS011;62316;48.920;2.342;2023-10-13T08:06:36;18.00;;;16.00;;
73959;SDS011;62316;48.920;2.342;2023-10-13T08:09:02;17.00;;;17.00;;
73959;SDS011;62316;48.920;2.342;2023-10-13T08:11:34;15.00;;;14.00;;
73959;SDS011;62316;48.920;2.342;2023-10-13T08:14:03;17.75;;;14.25;;
73959;SDS011;62316;48.920;2.342;2023-10-13T08:16:42;14.00;;;13.00;;
73959;SDS011;62316;48.920;2.342;2023-10-13T08:19:17;19.25;;;15.50;;
73959;SDS011;62316;48.920;2.342;2023-10-13T08:21:44;32.00;;;27.50;;
73959;SDS011;62316;48.920;2.342;2023-10-13T08:24:22;20.75;;;20.75;;
73959;SDS011;62316;48.920;2.342;2023-10-13T08:27:15;24.00;;;21.75;;
73959;SDS011;62316;48.920;2.342;2023-10-13T08:29:43;22.75;;;22.25;;
73959;SDS011;62316;48.920;2.342;2023-10-13T08:32:24;19.25;;;17.75;;
73959;SDS011;62316;48.920;2.342;2023-10-13T08:34:52;21.75;;;20.50;;
73959;SDS011;62316;48.920;2.342;2023-10-13T08:37:18;23.75;;;21.50;;
73959;SDS011;62316;48.920;2.342;2023-10-13T08:39:47;25.67;;;17.33;;
73959;SDS011;62316;48.920;2.342;2023-10-13T08:42:31;22.00;;;20.75;;
73959;SDS011;62316;48.920;2.342;2023-10-13T08:45:19;21.00;;;19.75;;
73959;SDS011;62316;48.920;2.342;2023-10-13T08:47:51;21.00;;;17.33;;
73959;SDS011;62316;48.920;2.342;2023-10-13T08:50:33;16.33;;;14.67;;
73959;SDS011;62316;48.920;2.342;2023-10-13T08:53:24;16.50;;;16.50;;
73959;SDS011;62316;48.920;2.342;2023-10-13T08:56:03;12.50;;;12.00;;
73959;SDS011;62316;48.920;2.342;2023-10-13T08:58:59;13.75;;;11.75;;
73959;SDS011;62316;48.920;2.342;2023-10-13T09:01:25;11.33;;;11.33;;
73959;SDS011;62316;48.920;2.342;2023-10-13T09:04:10;13.75;;;11.75;;
73959;SDS011;62316;48.920;2.342;2023-10-13T09:06:55;11.00;;;10.67;;
73959;SDS011;62316;48.920;2.342;2023-10-13T09:12:20;16.33;;;14.67;;
73959;SDS011;62316;48.920;2.342;2023-10-13T09:14:54;16.00;;;14.67;;
73959;SDS011;62316;48.920;2.342;2023-10-13T09:17:23;14.00;;;11.00;;
73959;SDS011;62316;48.920;2.342;2023-10-13T09:20:05;13.67;;;13.33;;
73959;SDS011;62316;48.920;2.342;2023-10-13T09:22:47;13.33;;;12.00;;
73959;SDS011;62316;48.920;2.342;2023-10-13T09:27:58;15.67;;;13.33;;
73959;SDS011;62316;48.920;2.342;2023-10-13T09:30:26;14.67;;;13.67;;
73959;SDS011;62316;48.920;2.342;2023-10-13T09:33:02;12.00;;;10.67;;
73959;SDS011;62316;48.920;2.342;2023-10-13T09:35:29;15.50;;;13.25;;
73959;SDS011;62316;48.920;2.342;2023-10-13T09:37:59;12.00;;;12.00;;
73959;SDS011;62316;48.920;2.342;2023-10-13T09:40:33;15.67;;;12.00;;
73959;SDS011;62316;48.920;2.342;2023-10-13T09:43:14;15.25;;;15.25;;
73959;SDS011;62316;48.920;2.342;2023-10-13T09:45:42;19.33;;;15.67;;
73959;SDS011;62316;48.920;2.342;2023-10-13T09:48:22;18.00;;;12.67;;
73959;SDS011;62316;48.920;2.342;2023-10-13T09:51:19;15.00;;;11.00;;
73959;SDS011;62316;48.920;2.342;2023-10-13T09:54:50;10.00;;;10.00;;
73959;SDS011;62316;48.920;2.342;2023-10-13T09:56:50;18.00;;;12.00;;
73959;SDS011;62316;48.920;2.342;2023-10-13T09:59:21;12.67;;;11.67;;
73959;SDS011;62316;48.920;2.342;2023-10-13T10:01:48;11.33;;;8.33;;
73959;SDS011;62316;48.920;2.342;2023-10-13T10:04:16;11.33;;;11.33;;
73959;SDS011;62316;48.920;2.342;2023-10-13T10:06:57;17.33;;;17.33;;
73959;SDS011;62316;48.920;2.342;2023-10-13T10:09:30;12.67;;;11.33;;
73959;SDS011;62316;48.920;2.342;2023-10-13T10:17:38;12.00;;;10.00;;
73959;SDS011;62316;48.920;2.342;2023-10-13T10:20:04;8.33;;;8.33;;
73959;SDS011;62316;48.920;2.342;2023-10-13T10:22:40;12.33;;;12.33;;
73959;SDS011;62316;48.920;2.342;2023-10-13T10:25:13;15.67;;;11.33;;
73959;SDS011;62316;48.920;2.342;2023-10-13T10:27:55;12.00;;;12.00;;
73959;SDS011;62316;48.920;2.342;2023-10-13T10:30:27;19.25;;;18.25;;
73959;SDS011;62316;48.920;2.342;2023-10-13T10:32:56;14.33;;;13.00;;
73959;SDS011;62316;48.920;2.342;2023-10-13T10:35:24;13.67;;;11.67;;
73959;SDS011;62316;48.920;2.342;2023-10-13T10:37:56;12.33;;;12.33;;
73959;SDS011;62316;48.920;2.342;2023-10-13T10:40:28;11.33;;;10.67;;
73959;SDS011;62316;48.920;2.342;2023-10-13T10:43:13;13.33;;;13.33;;
73959;SDS011;62316;48.920;2.342;2023-10-13T10:45:45;15.00;;;12.67;;
73959;SDS011;62316;48.920;2.342;2023-10-13T10:48:12;16.00;;;12.00;;
73959;SDS011;62316;48.920;2.342;2023-10-13T10:51:04;12.00;;;11.00;;
73959;SDS011;62316;48.920;2.342;2023-10-13T10:53:33;12.33;;;12.00;;
73959;SDS011;62316;48.920;2.342;2023-10-13T10:56:04;16.67;;;12.33;;
73959;SDS011;62316;48.920;2.342;2023-10-13T10:58:34;8.67;;;8.33;;
73959;SDS011;62316;48.920;2.342;2023-10-13T11:01:09;17.00;;;14.33;;
73959;SDS011;62316;48.920;2.342;2023-10-13T11:03:36;14.67;;;12.00;;
73959;SDS011;62316;48.920;2.342;2023-10-13T11:06:03;13.00;;;11.33;;
73959;SDS011;62316;48.920;2.342;2023-10-13T11:08:35;13.00;;;12.00;;
73959;SDS011;62316;48.920;2.342;2023-10-13T11:11:02;12.00;;;9.67;;
73959;SDS011;62316;48.920;2.342;2023-10-13T11:13:43;14.00;;;11.33;;
73959;SDS011;62316;48.920;2.342;2023-10-13T11:16:20;16.67;;;14.33;;
73959;SDS011;62316;48.920;2.342;2023-10-13T11:18:58;15.67;;;12.67;;
73959;SDS011;62316;48.920;2.342;2023-10-13T11:21:28;15.00;;;12.33;;
73959;SDS011;62316;48.920;2.342;2023-10-13T11:23:57;16.67;;;13.67;;
73959;SDS011;62316;48.920;2.342;2023-10-13T11:26:32;14.00;;;13.00;;
73959;SDS011;62316;48.920;2.342;2023-10-13T11:28:57;14.67;;;12.00;;
73959;SDS011;62316;48.920;2.342;2023-10-13T11:31:23;13.67;;;12.67;;
73959;SDS011;62316;48.920;2.342;2023-10-13T11:33:49;15.67;;;11.67;;
73959;SDS011;62316;48.920;2.342;2023-10-13T11:36:15;13.00;;;12.00;;
73959;SDS011;62316;48.920;2.342;2023-10-13T11:38:47;10.33;;;10.33;;
73959;SDS011;62316;48.920;2.342;2023-10-13T11:41:12;12.00;;;10.67;;
73959;SDS011;62316;48.920;2.342;2023-10-13T11:43:49;10.33;;;9.00;;
73959;SDS011;62316;48.920;2.342;2023-10-13T11:46:15;10.00;;;9.00;;
73959;SDS011;62316;48.920;2.342;2023-10-13T11:48:41;13.33;;;10.33;;
73959;SDS011;62316;48.920;2.342;2023-10-13T11:51:07;11.33;;;9.33;;
73959;SDS011;62316;48.920;2.342;2023-10-13T11:53:37;12.00;;;11.00;;
73959;SDS011;62316;48.920;2.342;2023-10-13T11:56:05;7.67;;;6.67;;
73959;SDS011;62316;48.920;2.342;2023-10-13T11:58:35;10.67;;;8.67;;
73959;SDS011;62316;48.920;2.342;2023-10-13T12:01:00;11.67;;;9.33;;
73959;SDS011;62316;48.920;2.342;2023-10-13T12:03:38;14.33;;;11.00;;
73959;SDS011;62316;48.920;2.342;2023-10-13T12:06:22;11.00;;;9.67;;
73959;SDS011;62316;48.920;2.342;2023-10-13T12:09:03;13.33;;;12.00;;
73959;SDS011;62316;48.920;2.342;2023-10-13T12:11:44;10.33;;;9.33;;
73959;SDS011;62316;48.920;2.342;2023-10-13T12:14:13;15.33;;;10.33;;
73959;SDS011;62316;48.920;2.342;2023-10-13T12:16:52;10.33;;;9.33;;
73959;SDS011;62316;48.920;2.342;2023-10-13T12:19:20;10.00;;;10.00;;
73959;SDS011;62316;48.920;2.342;2023-10-13T12:21:55;11.00;;;10.00;;
73959;SDS011;62316;48.920;2.342;2023-10-13T12:24:24;11.00;;;11.00;;
73959;SDS011;62316;48.920;2.342;2023-10-13T12:27:08;15.33;;;11.33;;
73959;SDS011;62316;48.920;2.342;2023-10-13T12:29:51;9.00;;;9.00;;
73959;SDS011;62316;48.920;2.342;2023-10-13T12:32:17;11.33;;;10.00;;
73959;SDS011;62316;48.920;2.342;2023-10-13T12:34:47;12.33;;;11.33;;
73959;SDS011;62316;48.920;2.342;2023-10-13T12:37:21;11.33;;;10.00;;
73959;SDS011;62316;48.920;2.342;2023-10-13T12:40:18;8.00;;;8.00;;
73959;SDS011;62316;48.920;2.342;2023-10-13T12:43:03;11.67;;;9.67;;
73959;SDS011;62316;48.920;2.342;2023-10-13T12:45:48;10.67;;;10.00;;
73959;SDS011;62316;48.920;2.342;2023-10-13T12:48:32;14.00;;;12.25;;
73959;SDS011;62316;48.920;2.342;2023-10-13T12:51:16;12.25;;;12.25;;
73959;SDS011;62316;48.920;2.342;2023-10-13T12:53:56;14.33;;;9.67;;
73959;SDS011;62316;48.920;2.342;2023-10-13T12:56:38;10.67;;;10.00;;
73959;SDS011;62316;48.920;2.342;2023-10-13T12:59:06;11.00;;;10.00;;
73959;SDS011;62316;48.920;2.342;2023-10-13T13:01:34;9.33;;;9.00;;
73959;SDS011;62316;48.920;2.342;2023-10-13T13:03:59;12.33;;;10.00;;
73959;SDS011;62316;48.920;2.342;2023-10-13T13:06:28;11.67;;;10.33;;
73959;SDS011;62316;48.920;2.342;2023-10-13T13:08:57;11.33;;;10.33;;
73959;SDS011;62316;48.920;2.342;2023-10-13T13:11:23;11.33;;;10.00;;
73959;SDS011;62316;48.920;2.342;2023-10-13T13:13:48;10.33;;;9.33;;
73959;SDS011;62316;48.920;2.342;2023-10-13T13:16:14;10.67;;;9.00;;
73959;SDS011;62316;48.920;2.342;2023-10-13T13:18:40;10.67;;;9.67;;
73959;SDS011;62316;48.920;2.342;2023-10-13T13:21:05;8.00;;;8.00;;
73959;SDS011;62316;48.920;2.342;2023-10-13T13:23:38;14.67;;;11.33;;
73959;SDS011;62316;48.920;2.342;2023-10-13T13:26:04;9.00;;;9.00;;
73959;SDS011;62316;48.920;2.342;2023-10-13T13:28:40;13.33;;;11.00;;
73959;SDS011;62316;48.920;2.342;2023-10-13T13:31:05;13.33;;;12.00;;
73959;SDS011;62316;48.920;2.342;2023-10-13T13:33:33;10.00;;;8.67;;
73959;SDS011;62316;48.920;2.342;2023-10-13T13:36:03;12.00;;;9.67;;
73959;SDS011;62316;48.920;2.342;2023-10-13T13:38:29;11.75;;;9.75;;
73959;SDS011;62316;48.920;2.342;2023-10-13T13:40:57;13.67;;;11.00;;
73959;SDS011;62316;48.920;2.342;2023-10-13T13:43:22;14.33;;;10.00;;
73959;SDS011;62316;48.920;2.342;2023-10-13T13:46:02;12.00;;;10.67;;
73959;SDS011;62316;48.920;2.342;2023-10-13T13:48:28;12.00;;;11.00;;
73959;SDS011;62316;48.920;2.342;2023-10-13T13:50:53;13.00;;;8.67;;
73959;SDS011;62316;48.920;2.342;2023-10-13T13:53:30;13.00;;;8.67;;
73959;SDS011;62316;48.920;2.342;2023-10-13T13:56:00;14.00;;;11.00;;
73959;SDS011;62316;48.920;2.342;2023-10-13T13:58:25;12.00;;;12.00;;
73959;SDS011;62316;48.920;2.342;2023-10-13T14:00:50;13.67;;;13.67;;
73959;SDS011;62316;48.920;2.342;2023-10-13T14:03:16;11.00;;;8.33;;
73959;SDS011;62316;48.920;2.342;2023-10-13T14:05:59;10.67;;;10.00;;
73959;SDS011;62316;48.920;2.342;2023-10-13T14:08:25;13.33;;;9.00;;
73959;SDS011;62316;48.920;2.342;2023-10-13T14:10:51;13.33;;;9.67;;
73959;SDS011;62316;48.920;2.342;2023-10-13T14:13:34;9.33;;;8.33;;
73959;SDS011;62316;48.920;2.342;2023-10-13T14:16:20;14.75;;;12.00;;
73959;SDS011;62316;48.920;2.342;2023-10-13T14:18:48;11.00;;;10.00;;
73959;SDS011;62316;48.920;2.342;2023-10-13T14:21:14;11.33;;;10.67;;
73959;SDS011;62316;48.920;2.342;2023-10-13T14:23:45;11.00;;;11.00;;
73959;SDS011;62316;48.920;2.342;2023-10-13T14:26:14;9.33;;;9.00;;
73959;SDS011;62316;48.920;2.342;2023-10-13T14:28:39;12.33;;;10.67;;
73959;SDS011;62316;48.920;2.342;2023-10-13T14:31:17;11.33;;;9.67;;
73959;SDS011;62316;48.920;2.342;2023-10-13T14:33:43;14.33;;;12.33;;
73959;SDS011;62316;48.920;2.342;2023-10-13T14:36:12;13.00;;;10.67;;
73959;SDS011;62316;48.920;2.342;2023-10-13T14:38:37;15.00;;;12.00;;
73959;SDS011;62316;48.920;2.342;2023-10-13T14:41:02;10.67;;;9.00;;
73959;SDS011;62316;48.920;2.342;2023-10-13T14:43:28;12.25;;;12.25;;
73959;SDS011;62316;48.920;2.342;2023-10-13T14:45:59;17.33;;;15.33;;
73959;SDS011;62316;48.920;2.342;2023-10-13T14:48:26;11.00;;;10.00;;
73959;SDS011;62316;48.920;2.342;2023-10-13T14:50:54;13.33;;;12.00;;
73959;SDS011;62316;48.920;2.342;2023-10-13T14:53:24;13.25;;;12.00;;
73959;SDS011;62316;48.920;2.342;2023-10-13T14:56:03;11.00;;;11.00;;
73959;SDS011;62316;48.920;2.342;2023-10-13T14:58:30;13.33;;;12.00;;
73959;SDS011;62316;48.920;2.342;2023-10-13T15:00:59;13.33;;;12.00;;
73959;SDS011;62316;48.920;2.342;2023-10-13T15:03:29;17.75;;;12.75;;
73959;SDS011;62316;48.920;2.342;2023-10-13T15:06:03;18.75;;;17.00;;
73959;SDS011;62316;48.920;2.342;2023-10-13T15:08:28;17.33;;;15.00;;
73959;SDS011;62316;48.920;2.342;2023-10-13T15:10:55;18.00;;;13.00;;
73959;SDS011;62316;48.920;2.342;2023-10-13T15:13:20;15.33;;;13.67;;
73959;SDS011;62316;48.920;2.342;2023-10-13T15:15:47;16.00;;;12.75;;